Terminal Aerodrome Forecast
Issued by NWS

Home | Current Version | Previous Version | Text Only | Print | Product List | Glossary Off
Versions: 1 2 3 4 5 6 7 8 9 10 11 12 13 14 15 16

000
FTUS43 KMPX 231722
TAFAXN
TAF
KAXN 231722Z 2318/2418 31007KT P6SM SKC
     FM232300 VRB03KT P6SM FEW250
     FM240300 11005KT P6SM BKN070 OVC120
     FM240800 13010KT 6SM -SHRA OVC040=

USA.gov is the U.S. government's official web portal to all federal, state and local government web resources and services.